Terminal Aerodrome Forecast
Issued by NWS

Home | Current Version | Previous Version | Graphics & Text | Print | Product List | Glossary On
Versions: 1 2 3 4 5 6 7 8 9 10 11 12 13 14 15 16 17 18 19 20 21 22
000
FTUS43 KICT 171433 AAA
TAFCNU
TAF AMD
KCNU 171433Z 1715/1812 30005KT P6SM OVC012
     FM171900 30005KT P6SM OVC025
     FM172000 29005KT P6SM BKN040
     FM172200 29006KT P6SM SCT060
     FM180800 00000KT P6SM SCT200=

USA.gov is the U.S. government's official web portal to all federal, state and local government web resources and services.